sensor_id;sensor_type;location;lat;lon;timestamp;P1;durP1;ratioP1;P2;durP2;ratioP2
59492;SDS011;45497;43.996;22.876;2024-03-25T00:02:16;8.77;;;1.20;;
59492;SDS011;45497;43.996;22.876;2024-03-25T00:04:41;11.50;;;1.37;;
59492;SDS011;45497;43.996;22.876;2024-03-25T00:07:07;12.57;;;1.50;;
59492;SDS011;45497;43.996;22.876;2024-03-25T00:09:32;9.98;;;1.30;;
59492;SDS011;45497;43.996;22.876;2024-03-25T00:11:58;11.77;;;1.53;;
59492;SDS011;45497;43.996;22.876;2024-03-25T00:14:24;10.00;;;1.33;;
59492;SDS011;45497;43.996;22.876;2024-03-25T00:16:55;13.10;;;1.60;;
59492;SDS011;45497;43.996;22.876;2024-03-25T00:19:21;11.30;;;1.33;;
59492;SDS011;45497;43.996;22.876;2024-03-25T00:21:46;9.23;;;1.20;;
59492;SDS011;45497;43.996;22.876;2024-03-25T00:24:12;10.87;;;1.60;;
59492;SDS011;45497;43.996;22.876;2024-03-25T00:26:37;15.02;;;1.80;;
59492;SDS011;45497;43.996;22.876;2024-03-25T00:29:03;9.00;;;1.08;;
59492;SDS011;45497;43.996;22.876;2024-03-25T00:31:31;14.70;;;2.00;;
59492;SDS011;45497;43.996;22.876;2024-03-25T00:33:59;11.85;;;1.77;;
59492;SDS011;45497;43.996;22.876;2024-03-25T00:36:29;12.32;;;1.42;;
59492;SDS011;45497;43.996;22.876;2024-03-25T00:38:57;10.55;;;1.35;;
59492;SDS011;45497;43.996;22.876;2024-03-25T00:41:25;9.77;;;1.48;;
59492;SDS011;45497;43.996;22.876;2024-03-25T00:43:53;11.45;;;1.45;;
59492;SDS011;45497;43.996;22.876;2024-03-25T00:46:21;13.50;;;2.10;;
59492;SDS011;45497;43.996;22.876;2024-03-25T00:48:51;11.63;;;1.42;;
59492;SDS011;45497;43.996;22.876;2024-03-25T00:51:17;8.37;;;1.20;;
59492;SDS011;45497;43.996;22.876;2024-03-25T00:53:42;15.05;;;1.77;;
59492;SDS011;45497;43.996;22.876;2024-03-25T00:56:08;13.20;;;1.60;;
59492;SDS011;45497;43.996;22.876;2024-03-25T00:58:34;11.27;;;1.57;;
59492;SDS011;45497;43.996;22.876;2024-03-25T01:01:00;12.40;;;2.80;;
59492;SDS011;45497;43.996;22.876;2024-03-25T01:03:25;11.07;;;1.73;;
59492;SDS011;45497;43.996;22.876;2024-03-25T01:05:51;9.27;;;1.15;;
59492;SDS011;45497;43.996;22.876;2024-03-25T01:08:19;11.20;;;1.35;;
59492;SDS011;45497;43.996;22.876;2024-03-25T01:10:47;14.15;;;1.70;;
59492;SDS011;45497;43.996;22.876;2024-03-25T01:13:13;12.43;;;1.55;;
59492;SDS011;45497;43.996;22.876;2024-03-25T01:15:48;10.70;;;1.52;;
59492;SDS011;45497;43.996;22.876;2024-03-25T01:18:19;10.57;;;1.50;;
59492;SDS011;45497;43.996;22.876;2024-03-25T01:20:49;9.13;;;1.30;;
59492;SDS011;45497;43.996;22.876;2024-03-25T01:23:17;8.80;;;1.20;;
59492;SDS011;45497;43.996;22.876;2024-03-25T01:25:44;9.40;;;1.20;;
59492;SDS011;45497;43.996;22.876;2024-03-25T01:28:10;8.75;;;1.27;;
59492;SDS011;45497;43.996;22.876;2024-03-25T01:30:36;12.85;;;1.52;;
59492;SDS011;45497;43.996;22.876;2024-03-25T01:33:04;4.78;;;0.70;;
59492;SDS011;45497;43.996;22.876;2024-03-25T01:35:30;10.40;;;1.27;;
59492;SDS011;45497;43.996;22.876;2024-03-25T01:37:56;11.90;;;1.40;;
59492;SDS011;45497;43.996;22.876;2024-03-25T01:40:24;10.95;;;1.30;;
59492;SDS011;45497;43.996;22.876;2024-03-25T01:42:56;7.10;;;0.98;;
59492;SDS011;45497;43.996;22.876;2024-03-25T01:45:23;7.95;;;0.98;;
59492;SDS011;45497;43.996;22.876;2024-03-25T01:47:56;8.18;;;1.08;;
59492;SDS011;45497;43.996;22.876;2024-03-25T01:50:26;11.35;;;1.30;;
59492;SDS011;45497;43.996;22.876;2024-03-25T01:52:54;10.15;;;2.15;;
59492;SDS011;45497;43.996;22.876;2024-03-25T01:55:21;8.00;;;1.27;;
59492;SDS011;45497;43.996;22.876;2024-03-25T01:57:53;7.13;;;1.20;;
59492;SDS011;45497;43.996;22.876;2024-03-25T02:00:19;13.47;;;1.87;;
59492;SDS011;45497;43.996;22.876;2024-03-25T02:02:45;10.13;;;1.35;;
59492;SDS011;45497;43.996;22.876;2024-03-25T02:05:15;11.57;;;1.67;;
59492;SDS011;45497;43.996;22.876;2024-03-25T02:07:42;10.90;;;1.50;;
59492;SDS011;45497;43.996;22.876;2024-03-25T02:10:08;12.57;;;1.48;;
59492;SDS011;45497;43.996;22.876;2024-03-25T02:12:43;12.93;;;1.63;;
59492;SDS011;45497;43.996;22.876;2024-03-25T02:15:11;10.45;;;1.38;;
59492;SDS011;45497;43.996;22.876;2024-03-25T02:17:41;9.37;;;1.50;;
59492;SDS011;45497;43.996;22.876;2024-03-25T02:20:07;11.45;;;2.10;;
59492;SDS011;45497;43.996;22.876;2024-03-25T02:22:34;13.70;;;1.63;;
59492;SDS011;45497;43.996;22.876;2024-03-25T02:25:01;12.32;;;1.70;;
59492;SDS011;45497;43.996;22.876;2024-03-25T02:27:33;12.20;;;1.55;;
59492;SDS011;45497;43.996;22.876;2024-03-25T02:30:03;13.73;;;1.88;;
59492;SDS011;45497;43.996;22.876;2024-03-25T02:32:34;11.10;;;1.40;;
59492;SDS011;45497;43.996;22.876;2024-03-25T02:35:01;11.30;;;1.63;;
59492;SDS011;45497;43.996;22.876;2024-03-25T02:37:28;12.52;;;1.88;;
59492;SDS011;45497;43.996;22.876;2024-03-25T02:39:55;13.63;;;2.17;;
59492;SDS011;45497;43.996;22.876;2024-03-25T02:42:23;9.55;;;1.33;;
59492;SDS011;45497;43.996;22.876;2024-03-25T02:44:54;8.48;;;1.20;;
59492;SDS011;45497;43.996;22.876;2024-03-25T02:47:20;11.68;;;1.52;;
59492;SDS011;45497;43.996;22.876;2024-03-25T02:49:46;9.17;;;1.23;;
59492;SDS011;45497;43.996;22.876;2024-03-25T02:52:12;13.82;;;2.58;;
59492;SDS011;45497;43.996;22.876;2024-03-25T02:54:37;11.70;;;1.73;;
59492;SDS011;45497;43.996;22.876;2024-03-25T02:57:03;10.43;;;1.30;;
59492;SDS011;45497;43.996;22.876;2024-03-25T02:59:29;12.00;;;1.35;;
59492;SDS011;45497;43.996;22.876;2024-03-25T03:01:54;9.73;;;1.33;;
59492;SDS011;45497;43.996;22.876;2024-03-25T03:04:20;13.88;;;2.30;;
59492;SDS011;45497;43.996;22.876;2024-03-25T03:06:46;13.70;;;1.60;;
59492;SDS011;45497;43.996;22.876;2024-03-25T03:09:11;14.57;;;1.80;;
59492;SDS011;45497;43.996;22.876;2024-03-25T03:11:37;13.43;;;1.60;;
59492;SDS011;45497;43.996;22.876;2024-03-25T03:14:02;16.42;;;2.28;;
59492;SDS011;45497;43.996;22.876;2024-03-25T03:16:30;8.88;;;1.20;;
59492;SDS011;45497;43.996;22.876;2024-03-25T03:18:55;14.88;;;2.13;;
59492;SDS011;45497;43.996;22.876;2024-03-25T03:21:21;15.75;;;1.98;;
59492;SDS011;45497;43.996;22.876;2024-03-25T03:23:46;20.07;;;2.30;;
59492;SDS011;45497;43.996;22.876;2024-03-25T03:26:12;14.93;;;2.10;;
59492;SDS011;45497;43.996;22.876;2024-03-25T03:28:39;15.15;;;2.05;;
59492;SDS011;45497;43.996;22.876;2024-03-25T03:31:05;19.50;;;2.30;;
59492;SDS011;45497;43.996;22.876;2024-03-25T03:33:31;15.70;;;2.38;;
59492;SDS011;45497;43.996;22.876;2024-03-25T03:35:57;11.30;;;1.83;;
59492;SDS011;45497;43.996;22.876;2024-03-25T03:38:22;13.47;;;1.73;;
59492;SDS011;45497;43.996;22.876;2024-03-25T03:43:23;10.30;;;1.67;;
59492;SDS011;45497;43.996;22.876;2024-03-25T03:45:49;9.52;;;1.27;;
59492;SDS011;45497;43.996;22.876;2024-03-25T03:48:14;12.63;;;1.60;;
59492;SDS011;45497;43.996;22.876;2024-03-25T03:50:40;13.53;;;1.80;;
59492;SDS011;45497;43.996;22.876;2024-03-25T03:55:58;14.00;;;1.80;;
59492;SDS011;45497;43.996;22.876;2024-03-25T03:58:26;12.25;;;1.63;;
59492;SDS011;45497;43.996;22.876;2024-03-25T04:00:52;21.85;;;2.50;;
59492;SDS011;45497;43.996;22.876;2024-03-25T04:03:21;10.23;;;1.27;;
59492;SDS011;45497;43.996;22.876;2024-03-25T04:05:47;5.25;;;0.82;;
59492;SDS011;45497;43.996;22.876;2024-03-25T04:08:13;9.50;;;1.20;;
59492;SDS011;45497;43.996;22.876;2024-03-25T04:10:39;7.13;;;0.95;;
59492;SDS011;45497;43.996;22.876;2024-03-25T04:13:06;17.33;;;2.00;;
59492;SDS011;45497;43.996;22.876;2024-03-25T04:15:36;15.40;;;1.67;;
59492;SDS011;45497;43.996;22.876;2024-03-25T04:18:03;11.27;;;1.45;;
59492;SDS011;45497;43.996;22.876;2024-03-25T04:20:29;9.73;;;1.25;;
59492;SDS011;45497;43.996;22.876;2024-03-25T04:23:01;10.00;;;1.42;;
59492;SDS011;45497;43.996;22.876;2024-03-25T04:25:27;7.82;;;1.30;;
59492;SDS011;45497;43.996;22.876;2024-03-25T04:27:52;12.90;;;1.92;;
59492;SDS011;45497;43.996;22.876;2024-03-25T04:30:18;6.70;;;1.20;;
59492;SDS011;45497;43.996;22.876;2024-03-25T04:32:44;8.80;;;1.30;;
59492;SDS011;45497;43.996;22.876;2024-03-25T04:35:10;6.38;;;1.00;;
59492;SDS011;45497;43.996;22.876;2024-03-25T04:37:38;9.90;;;1.17;;
59492;SDS011;45497;43.996;22.876;2024-03-25T04:40:06;7.95;;;2.15;;
59492;SDS011;45497;43.996;22.876;2024-03-25T04:42:33;9.63;;;1.43;;
59492;SDS011;45497;43.996;22.876;2024-03-25T04:44:59;6.72;;;1.23;;
59492;SDS011;45497;43.996;22.876;2024-03-25T04:47:25;7.47;;;1.10;;
59492;SDS011;45497;43.996;22.876;2024-03-25T04:49:51;18.60;;;2.55;;
59492;SDS011;45497;43.996;22.876;2024-03-25T04:57:25;10.00;;;1.35;;
59492;SDS011;45497;43.996;22.876;2024-03-25T04:59:51;7.75;;;1.30;;
59492;SDS011;45497;43.996;22.876;2024-03-25T05:02:17;8.43;;;1.47;;
59492;SDS011;45497;43.996;22.876;2024-03-25T05:04:46;11.95;;;1.42;;
59492;SDS011;45497;43.996;22.876;2024-03-25T05:07:12;15.27;;;3.47;;
59492;SDS011;45497;43.996;22.876;2024-03-25T05:17:24;6.38;;;0.80;;
59492;SDS011;45497;43.996;22.876;2024-03-25T05:19:50;9.15;;;1.52;;
59492;SDS011;45497;43.996;22.876;2024-03-25T05:22:23;18.95;;;2.40;;
59492;SDS011;45497;43.996;22.876;2024-03-25T05:24:50;7.68;;;1.30;;
59492;SDS011;45497;43.996;22.876;2024-03-25T05:27:19;9.30;;;1.20;;
59492;SDS011;45497;43.996;22.876;2024-03-25T05:29:45;7.40;;;1.20;;
59492;SDS011;45497;43.996;22.876;2024-03-25T05:32:13;8.38;;;1.40;;
59492;SDS011;45497;43.996;22.876;2024-03-25T05:34:41;7.43;;;1.40;;
59492;SDS011;45497;43.996;22.876;2024-03-25T05:37:08;5.55;;;0.88;;
59492;SDS011;45497;43.996;22.876;2024-03-25T05:39:34;6.18;;;0.90;;
59492;SDS011;45497;43.996;22.876;2024-03-25T05:41:59;7.32;;;1.25;;
59492;SDS011;45497;43.996;22.876;2024-03-25T05:44:28;18.00;;;2.10;;
59492;SDS011;45497;43.996;22.876;2024-03-25T05:46:54;6.20;;;1.08;;
59492;SDS011;45497;43.996;22.876;2024-03-25T05:49:22;6.20;;;1.08;;
59492;SDS011;45497;43.996;22.876;2024-03-25T05:51:52;6.70;;;1.08;;
59492;SDS011;45497;43.996;22.876;2024-03-25T05:54:19;4.63;;;0.77;;
59492;SDS011;45497;43.996;22.876;2024-03-25T05:56:50;10.20;;;1.43;;
59492;SDS011;45497;43.996;22.876;2024-03-25T05:59:16;7.63;;;0.97;;
59492;SDS011;45497;43.996;22.876;2024-03-25T06:01:44;8.57;;;1.20;;
59492;SDS011;45497;43.996;22.876;2024-03-25T06:04:10;6.03;;;1.02;;
59492;SDS011;45497;43.996;22.876;2024-03-25T06:06:42;7.82;;;1.40;;
59492;SDS011;45497;43.996;22.876;2024-03-25T06:09:15;9.20;;;1.87;;
59492;SDS011;45497;43.996;22.876;2024-03-25T06:11:48;5.18;;;0.77;;
59492;SDS011;45497;43.996;22.876;2024-03-25T06:14:14;6.25;;;1.20;;
59492;SDS011;45497;43.996;22.876;2024-03-25T06:16:43;6.67;;;0.90;;
59492;SDS011;45497;43.996;22.876;2024-03-25T06:19:10;4.25;;;0.70;;
59492;SDS011;45497;43.996;22.876;2024-03-25T06:21:42;4.63;;;0.70;;
59492;SDS011;45497;43.996;22.876;2024-03-25T06:24:11;11.60;;;1.52;;
59492;SDS011;45497;43.996;22.876;2024-03-25T06:26:40;7.88;;;1.17;;
59492;SDS011;45497;43.996;22.876;2024-03-25T06:29:06;7.30;;;1.20;;
59492;SDS011;45497;43.996;22.876;2024-03-25T06:31:40;6.05;;;0.90;;
59492;SDS011;45497;43.996;22.876;2024-03-25T06:34:31;6.13;;;1.00;;
59492;SDS011;45497;43.996;22.876;2024-03-25T06:37:02;5.80;;;0.88;;
59492;SDS011;45497;43.996;22.876;2024-03-25T06:39:32;7.05;;;1.25;;
59492;SDS011;45497;43.996;22.876;2024-03-25T06:42:05;6.53;;;1.00;;
59492;SDS011;45497;43.996;22.876;2024-03-25T06:44:32;9.15;;;1.27;;
59492;SDS011;45497;43.996;22.876;2024-03-25T06:47:01;4.30;;;1.00;;
59492;SDS011;45497;43.996;22.876;2024-03-25T06:49:29;4.25;;;0.77;;
59492;SDS011;45497;43.996;22.876;2024-03-25T06:52:00;5.28;;;0.80;;
59492;SDS011;45497;43.996;22.876;2024-03-25T06:54:26;5.07;;;0.75;;
59492;SDS011;45497;43.996;22.876;2024-03-25T14:12:44;5.10;;;0.77;;
59492;SDS011;45497;43.996;22.876;2024-03-25T14:15:13;9.30;;;1.10;;
59492;SDS011;45497;43.996;22.876;2024-03-25T14:17:41;2.90;;;0.70;;
59492;SDS011;45497;43.996;22.876;2024-03-25T14:20:10;4.82;;;0.88;;
59492;SDS011;45497;43.996;22.876;2024-03-25T14:22:41;2.92;;;0.50;;
59492;SDS011;45497;43.996;22.876;2024-03-25T14:25:12;3.88;;;0.57;;
59492;SDS011;45497;43.996;22.876;2024-03-25T14:27:51;4.57;;;0.70;;
59492;SDS011;45497;43.996;22.876;2024-03-25T14:30:22;3.78;;;0.80;;
59492;SDS011;45497;43.996;22.876;2024-03-25T14:32:53;4.50;;;0.70;;
59492;SDS011;45497;43.996;22.876;2024-03-25T14:35:28;4.78;;;0.80;;
59492;SDS011;45497;43.996;22.876;2024-03-25T14:37:57;4.80;;;0.88;;
59492;SDS011;45497;43.996;22.876;2024-03-25T14:40:26;3.88;;;0.70;;
59492;SDS011;45497;43.996;22.876;2024-03-25T14:43:09;4.25;;;0.65;;
59492;SDS011;45497;43.996;22.876;2024-03-25T14:45:37;6.03;;;1.00;;
59492;SDS011;45497;43.996;22.876;2024-03-25T14:50:37;3.53;;;0.55;;
59492;SDS011;45497;43.996;22.876;2024-03-25T14:55:41;5.75;;;0.90;;
59492;SDS011;45497;43.996;22.876;2024-03-25T15:00:37;4.55;;;0.88;;
59492;SDS011;45497;43.996;22.876;2024-03-25T15:03:05;4.15;;;0.63;;
59492;SDS011;45497;43.996;22.876;2024-03-25T15:08:36;4.43;;;0.70;;
59492;SDS011;45497;43.996;22.876;2024-03-25T15:11:02;4.88;;;0.73;;
59492;SDS011;45497;43.996;22.876;2024-03-25T15:13:32;3.50;;;0.80;;
59492;SDS011;45497;43.996;22.876;2024-03-25T15:16:10;4.80;;;0.80;;
59492;SDS011;45497;43.996;22.876;2024-03-25T15:21:17;5.93;;;0.98;;
59492;SDS011;45497;43.996;22.876;2024-03-25T15:23:42;4.55;;;0.68;;
59492;SDS011;45497;43.996;22.876;2024-03-25T15:26:18;8.95;;;1.25;;
59492;SDS011;45497;43.996;22.876;2024-03-25T15:28:47;6.93;;;1.00;;
59492;SDS011;45497;43.996;22.876;2024-03-25T15:31:14;9.65;;;1.30;;
59492;SDS011;45497;43.996;22.876;2024-03-25T15:33:40;5.57;;;0.93;;
59492;SDS011;45497;43.996;22.876;2024-03-25T15:36:09;4.65;;;0.80;;
59492;SDS011;45497;43.996;22.876;2024-03-25T15:38:44;7.28;;;1.15;;
59492;SDS011;45497;43.996;22.876;2024-03-25T15:41:10;4.80;;;0.80;;
59492;SDS011;45497;43.996;22.876;2024-03-25T15:43:37;5.13;;;0.80;;
59492;SDS011;45497;43.996;22.876;2024-03-25T15:46:13;3.70;;;0.70;;
59492;SDS011;45497;43.996;22.876;2024-03-25T15:48:51;3.95;;;0.55;;
59492;SDS011;45497;43.996;22.876;2024-03-25T15:51:17;3.90;;;0.70;;
59492;SDS011;45497;43.996;22.876;2024-03-25T15:53:44;4.28;;;0.70;;
59492;SDS011;45497;43.996;22.876;2024-03-25T15:56:10;7.10;;;1.00;;
59492;SDS011;45497;43.996;22.876;2024-03-25T15:58:35;6.90;;;1.20;;
59492;SDS011;45497;43.996;22.876;2024-03-25T16:01:01;10.43;;;1.57;;
59492;SDS011;45497;43.996;22.876;2024-03-25T16:03:31;11.57;;;1.73;;
59492;SDS011;45497;43.996;22.876;2024-03-25T16:05:59;8.77;;;1.20;;
59492;SDS011;45497;43.996;22.876;2024-03-25T16:08:28;5.88;;;0.85;;
59492;SDS011;45497;43.996;22.876;2024-03-25T16:13:22;7.43;;;1.13;;
59492;SDS011;45497;43.996;22.876;2024-03-25T16:16:01;4.65;;;1.00;;
59492;SDS011;45497;43.996;22.876;2024-03-25T16:18:27;4.47;;;0.70;;
59492;SDS011;45497;43.996;22.876;2024-03-25T16:23:23;5.43;;;1.27;;
59492;SDS011;45497;43.996;22.876;2024-03-25T16:30:54;5.90;;;0.93;;
59492;SDS011;45497;43.996;22.876;2024-03-25T16:33:25;8.80;;;1.30;;
59492;SDS011;45497;43.996;22.876;2024-03-25T16:56:34;6.03;;;0.97;;
59492;SDS011;45497;43.996;22.876;2024-03-25T16:59:00;6.33;;;0.90;;
59492;SDS011;45497;43.996;22.876;2024-03-25T17:01:27;6.25;;;1.08;;
59492;SDS011;45497;43.996;22.876;2024-03-25T17:03:52;12.60;;;1.95;;
59492;SDS011;45497;43.996;22.876;2024-03-25T17:06:51;9.45;;;1.20;;
59492;SDS011;45497;43.996;22.876;2024-03-25T17:09:13;6.18;;;1.10;;
59492;SDS011;45497;43.996;22.876;2024-03-25T17:11:39;6.85;;;1.23;;
59492;SDS011;45497;43.996;22.876;2024-03-25T17:14:05;4.65;;;0.80;;
59492;SDS011;45497;43.996;22.876;2024-03-25T17:16:32;8.00;;;1.20;;
59492;SDS011;45497;43.996;22.876;2024-03-25T17:18:58;7.25;;;2.10;;
59492;SDS011;45497;43.996;22.876;2024-03-25T17:21:27;5.15;;;0.85;;
59492;SDS011;45497;43.996;22.876;2024-03-25T17:29:04;10.48;;;1.52;;
59492;SDS011;45497;43.996;22.876;2024-03-25T17:49:31;9.77;;;1.42;;
59492;SDS011;45497;43.996;22.876;2024-03-25T17:51:59;16.40;;;2.58;;
59492;SDS011;45497;43.996;22.876;2024-03-25T17:54:25;4.97;;;1.10;;
59492;SDS011;45497;43.996;22.876;2024-03-25T17:56:50;4.07;;;0.73;;
59492;SDS011;45497;43.996;22.876;2024-03-25T17:59:18;5.87;;;0.97;;
59492;SDS011;45497;43.996;22.876;2024-03-25T18:01:47;5.15;;;0.80;;
59492;SDS011;45497;43.996;22.876;2024-03-25T18:04:17;5.93;;;1.20;;
59492;SDS011;45497;43.996;22.876;2024-03-25T18:06:46;7.57;;;1.20;;
59492;SDS011;45497;43.996;22.876;2024-03-25T18:09:12;6.60;;;1.07;;
59492;SDS011;45497;43.996;22.876;2024-03-25T18:11:38;5.72;;;0.98;;
59492;SDS011;45497;43.996;22.876;2024-03-25T18:14:04;4.30;;;0.80;;
59492;SDS011;45497;43.996;22.876;2024-03-25T18:16:29;9.55;;;1.45;;
59492;SDS011;45497;43.996;22.876;2024-03-25T18:18:56;6.82;;;1.00;;
59492;SDS011;45497;43.996;22.876;2024-03-25T18:21:21;8.43;;;1.30;;
59492;SDS011;45497;43.996;22.876;2024-03-25T18:23:47;3.93;;;0.57;;
59492;SDS011;45497;43.996;22.876;2024-03-25T18:26:13;5.30;;;0.80;;
59492;SDS011;45497;43.996;22.876;2024-03-25T18:28:42;6.80;;;1.00;;
59492;SDS011;45497;43.996;22.876;2024-03-25T18:31:08;7.43;;;0.98;;
59492;SDS011;45497;43.996;22.876;2024-03-25T18:33:35;3.03;;;0.47;;
59492;SDS011;45497;43.996;22.876;2024-03-25T18:36:01;6.93;;;1.00;;
59492;SDS011;45497;43.996;22.876;2024-03-25T18:38:28;5.40;;;1.35;;
59492;SDS011;45497;43.996;22.876;2024-03-25T18:40:54;10.43;;;1.95;;
59492;SDS011;45497;43.996;22.876;2024-03-25T18:43:25;5.85;;;1.35;;
59492;SDS011;45497;43.996;22.876;2024-03-25T18:45:51;5.75;;;0.93;;
59492;SDS011;45497;43.996;22.876;2024-03-25T18:48:17;5.72;;;1.13;;
59492;SDS011;45497;43.996;22.876;2024-03-25T18:50:44;4.90;;;1.95;;
59492;SDS011;45497;43.996;22.876;2024-03-25T18:53:10;7.35;;;1.70;;
59492;SDS011;45497;43.996;22.876;2024-03-25T18:55:36;9.17;;;1.40;;
59492;SDS011;45497;43.996;22.876;2024-03-25T18:58:05;3.93;;;0.90;;
59492;SDS011;45497;43.996;22.876;2024-03-25T19:00:36;5.13;;;0.70;;
59492;SDS011;45497;43.996;22.876;2024-03-25T19:03:02;7.40;;;1.27;;
59492;SDS011;45497;43.996;22.876;2024-03-25T19:05:30;5.55;;;1.02;;
59492;SDS011;45497;43.996;22.876;2024-03-25T19:07:56;10.00;;;1.63;;
59492;SDS011;45497;43.996;22.876;2024-03-25T19:10:25;7.18;;;1.00;;
59492;SDS011;45497;43.996;22.876;2024-03-25T19:12:51;10.63;;;1.70;;
59492;SDS011;45497;43.996;22.876;2024-03-25T19:15:16;6.68;;;1.13;;
59492;SDS011;45497;43.996;22.876;2024-03-25T19:17:42;5.60;;;1.30;;
59492;SDS011;45497;43.996;22.876;2024-03-25T19:20:08;6.63;;;1.15;;
59492;SDS011;45497;43.996;22.876;2024-03-25T19:22:37;3.97;;;0.68;;
59492;SDS011;45497;43.996;22.876;2024-03-25T19:25:03;4.93;;;1.17;;
59492;SDS011;45497;43.996;22.876;2024-03-25T19:27:29;4.32;;;1.30;;
59492;SDS011;45497;43.996;22.876;2024-03-25T19:29:59;4.32;;;1.50;;
59492;SDS011;45497;43.996;22.876;2024-03-25T19:32:29;6.03;;;1.45;;
59492;SDS011;45497;43.996;22.876;2024-03-25T21:46:33;4.45;;;0.70;;
59492;SDS011;45497;43.996;22.876;2024-03-25T21:48:58;2.08;;;0.40;;
59492;SDS011;45497;43.996;22.876;2024-03-25T21:51:25;3.20;;;0.60;;
59492;SDS011;45497;43.996;22.876;2024-03-25T21:53:53;2.72;;;0.60;;
59492;SDS011;45497;43.996;22.876;2024-03-25T21:56:20;2.55;;;0.50;;
59492;SDS011;45497;43.996;22.876;2024-03-25T21:58:47;4.18;;;0.60;;
59492;SDS011;45497;43.996;22.876;2024-03-25T22:01:13;3.47;;;0.70;;
59492;SDS011;45497;43.996;22.876;2024-03-25T22:03:39;2.45;;;0.47;;
59492;SDS011;45497;43.996;22.876;2024-03-25T22:06:04;3.00;;;0.60;;
59492;SDS011;45497;43.996;22.876;2024-03-25T22:08:30;4.70;;;0.82;;
59492;SDS011;45497;43.996;22.876;2024-03-25T22:10:57;4.00;;;1.00;;
59492;SDS011;45497;43.996;22.876;2024-03-25T22:13:22;3.33;;;0.70;;
59492;SDS011;45497;43.996;22.876;2024-03-25T22:15:58;4.50;;;0.83;;
59492;SDS011;45497;43.996;22.876;2024-03-25T22:18:24;2.67;;;0.65;;
59492;SDS011;45497;43.996;22.876;2024-03-25T22:20:50;3.90;;;0.70;;
59492;SDS011;45497;43.996;22.876;2024-03-25T22:23:16;4.07;;;0.70;;
59492;SDS011;45497;43.996;22.876;2024-03-25T22:25:42;3.47;;;0.70;;
59492;SDS011;45497;43.996;22.876;2024-03-25T22:28:08;4.88;;;0.80;;
59492;SDS011;45497;43.996;22.876;2024-03-25T22:30:33;3.50;;;0.80;;
59492;SDS011;45497;43.996;22.876;2024-03-25T22:32:59;3.10;;;0.70;;
59492;SDS011;45497;43.996;22.876;2024-03-25T22:35:25;4.40;;;0.73;;
59492;SDS011;45497;43.996;22.876;2024-03-25T22:37:51;3.58;;;0.60;;
59492;SDS011;45497;43.996;22.876;2024-03-25T22:40:17;3.25;;;0.63;;
59492;SDS011;45497;43.996;22.876;2024-03-25T22:42:44;3.60;;;0.67;;
59492;SDS011;45497;43.996;22.876;2024-03-25T22:45:10;3.35;;;0.68;;
59492;SDS011;45497;43.996;22.876;2024-03-25T22:47:37;3.78;;;0.73;;
59492;SDS011;45497;43.996;22.876;2024-03-25T22:50:03;2.15;;;0.50;;
59492;SDS011;45497;43.996;22.876;2024-03-25T22:52:29;2.80;;;0.65;;
59492;SDS011;45497;43.996;22.876;2024-03-25T22:54:55;3.83;;;0.68;;
59492;SDS011;45497;43.996;22.876;2024-03-25T22:57:21;2.78;;;0.60;;
59492;SDS011;45497;43.996;22.876;2024-03-25T22:59:50;3.40;;;0.73;;
59492;SDS011;45497;43.996;22.876;2024-03-25T23:02:16;4.03;;;0.80;;
59492;SDS011;45497;43.996;22.876;2024-03-25T23:04:41;4.80;;;0.80;;
59492;SDS011;45497;43.996;22.876;2024-03-25T23:07:07;3.13;;;0.70;;
59492;SDS011;45497;43.996;22.876;2024-03-25T23:09:33;3.10;;;0.50;;
59492;SDS011;45497;43.996;22.876;2024-03-25T23:11:58;3.60;;;0.60;;
59492;SDS011;45497;43.996;22.876;2024-03-25T23:14:24;4.25;;;0.70;;
59492;SDS011;45497;43.996;22.876;2024-03-25T23:16:50;2.88;;;0.60;;
59492;SDS011;45497;43.996;22.876;2024-03-25T23:19:17;3.58;;;0.70;;
59492;SDS011;45497;43.996;22.876;2024-03-25T23:21:42;4.15;;;0.70;;
59492;SDS011;45497;43.996;22.876;2024-03-25T23:24:09;4.53;;;0.80;;
59492;SDS011;45497;43.996;22.876;2024-03-25T23:26:35;4.32;;;0.73;;
59492;SDS011;45497;43.996;22.876;2024-03-25T23:29:01;4.93;;;0.93;;
59492;SDS011;45497;43.996;22.876;2024-03-25T23:31:27;4.97;;;0.87;;
59492;SDS011;45497;43.996;22.876;2024-03-25T23:33:59;3.97;;;0.67;;
59492;SDS011;45497;43.996;22.876;2024-03-25T23:36:25;3.67;;;1.30;;
59492;SDS011;45497;43.996;22.876;2024-03-25T23:38:50;5.60;;;0.90;;
59492;SDS011;45497;43.996;22.876;2024-03-25T23:41:17;3.50;;;0.60;;
59492;SDS011;45497;43.996;22.876;2024-03-25T23:43:42;2.83;;;0.52;;
59492;SDS011;45497;43.996;22.876;2024-03-25T23:46:08;3.28;;;0.55;;
59492;SDS011;45497;43.996;22.876;2024-03-25T23:51:02;3.30;;;0.90;;
59492;SDS011;45497;43.996;22.876;2024-03-25T23:53:30;3.87;;;0.80;;
59492;SDS011;45497;43.996;22.876;2024-03-25T23:55:57;3.70;;;0.80;;
59492;SDS011;45497;43.996;22.876;2024-03-25T23:58:22;5.72;;;0.93;;
